createdAt,value
2022-09-28T00:00:26.668Z,949.99
2022-09-28T00:01:26.676Z,949.91
2022-09-28T00:02:26.790Z,949.92
2022-09-28T00:03:26.616Z,949.95
2022-09-28T00:04:26.596Z,949.89
2022-09-28T00:05:26.585Z,949.92
2022-09-28T00:06:26.561Z,949.83
2022-09-28T00:07:26.571Z,949.87
2022-09-28T00:08:26.520Z,949.84
2022-09-28T00:09:27.507Z,949.79
2022-09-28T00:10:26.494Z,949.80
2022-09-28T00:11:26.472Z,949.84
2022-09-28T00:12:26.482Z,949.78
2022-09-28T00:13:26.434Z,949.79
2022-09-28T00:14:26.414Z,949.73
2022-09-28T00:15:26.399Z,949.76
2022-09-28T00:16:26.441Z,949.77
2022-09-28T00:17:26.383Z,949.72
2022-09-28T00:18:26.336Z,949.69
2022-09-28T00:19:26.319Z,949.63
2022-09-28T00:20:26.305Z,949.64
2022-09-28T00:21:26.283Z,949.62
2022-09-28T00:22:26.410Z,949.59
2022-09-28T00:23:26.242Z,949.57
2022-09-28T00:24:27.763Z,949.64
2022-09-28T00:25:27.208Z,949.62
2022-09-28T00:26:26.188Z,949.62
2022-09-28T00:27:26.202Z,949.57
2022-09-28T00:28:26.156Z,949.61
2022-09-28T00:29:26.140Z,949.56
2022-09-28T00:30:26.117Z,949.46
2022-09-28T00:31:26.140Z,949.51
2022-09-28T00:32:26.107Z,949.41
2022-09-28T00:33:26.063Z,949.43
2022-09-28T00:34:26.041Z,949.46
2022-09-28T00:35:26.029Z,949.41
2022-09-28T00:36:26.006Z,949.38
2022-09-28T00:37:26.013Z,949.40
2022-09-28T00:38:25.965Z,949.41
2022-09-28T00:39:25.949Z,949.42
2022-09-28T00:40:25.953Z,949.37
2022-09-28T00:41:25.909Z,949.39
2022-09-28T00:42:25.918Z,949.41
2022-09-28T00:43:25.881Z,949.39
2022-09-28T00:44:25.852Z,949.40
2022-09-28T00:45:25.869Z,949.32
2022-09-28T00:46:25.818Z,949.29
2022-09-28T00:47:25.830Z,949.34
2022-09-28T00:48:25.778Z,949.26
2022-09-28T00:49:25.761Z,949.28
2022-09-28T00:50:25.748Z,949.24
2022-09-28T00:51:25.725Z,949.22
2022-09-28T00:52:25.736Z,949.25
2022-09-28T00:53:25.692Z,949.28
2022-09-28T00:54:25.671Z,949.21
2022-09-28T00:55:25.653Z,949.23
2022-09-28T00:56:25.632Z,949.22
2022-09-28T00:57:25.650Z,949.21
2022-09-28T00:58:25.601Z,949.18
2022-09-28T00:59:25.584Z,949.21
2022-09-28T01:00:25.573Z,949.18
2022-09-28T01:01:25.609Z,949.10
2022-09-28T01:02:25.621Z,949.11
2022-09-28T01:03:25.507Z,949.11
2022-09-28T01:04:29.854Z,949.13
2022-09-28T01:05:26.478Z,949.03
2022-09-28T01:06:25.458Z,949.06
2022-09-28T01:07:25.464Z,949.02
2022-09-28T01:08:25.422Z,949.01
2022-09-28T01:09:25.397Z,948.96
2022-09-28T01:10:25.382Z,949.01
2022-09-28T01:11:25.365Z,948.94
2022-09-28T01:12:25.378Z,948.94
2022-09-28T01:13:25.332Z,949.02
2022-09-28T01:14:25.318Z,948.96
2022-09-28T01:15:25.290Z,948.95
2022-09-28T01:16:25.350Z,948.94
2022-09-28T01:17:25.291Z,948.95
2022-09-28T01:18:25.252Z,948.91
2022-09-28T01:19:25.219Z,948.93
2022-09-28T01:20:25.201Z,948.88
2022-09-28T01:21:25.179Z,948.87
2022-09-28T01:22:25.189Z,948.89
2022-09-28T01:23:25.143Z,948.85
2022-09-28T01:24:25.126Z,948.94
2022-09-28T01:25:25.109Z,948.88
2022-09-28T01:26:25.084Z,948.86
2022-09-28T01:27:25.094Z,948.87
2022-09-28T01:28:25.050Z,948.79
2022-09-28T01:29:25.028Z,948.79
2022-09-28T01:30:25.003Z,948.78
2022-09-28T01:31:25.054Z,948.73
2022-09-28T01:32:24.968Z,948.77
2022-09-28T01:33:24.946Z,948.81
2022-09-28T01:34:24.929Z,948.77
2022-09-28T01:35:24.910Z,948.73
2022-09-28T01:36:24.919Z,948.75
2022-09-28T01:37:24.868Z,948.70
2022-09-28T01:38:24.850Z,948.76
2022-09-28T01:39:24.830Z,948.72
2022-09-28T01:40:24.849Z,948.70
2022-09-28T01:41:24.831Z,948.67
2022-09-28T01:42:24.774Z,948.69
2022-09-28T01:43:24.752Z,948.65
2022-09-28T01:44:24.733Z,948.55
2022-09-28T01:45:24.720Z,948.64
2022-09-28T01:46:24.733Z,948.65
2022-09-28T01:47:24.684Z,948.54
2022-09-28T01:48:24.674Z,948.58
2022-09-28T01:49:24.641Z,948.55
2022-09-28T01:50:24.624Z,948.55
2022-09-28T01:51:24.604Z,948.57
2022-09-28T01:52:24.617Z,948.53
2022-09-28T01:53:24.564Z,948.56
2022-09-28T01:54:24.549Z,948.52
2022-09-28T01:55:24.534Z,948.49
2022-09-28T01:56:24.505Z,948.51
2022-09-28T01:57:24.510Z,948.52
2022-09-28T01:58:24.470Z,948.48
2022-09-28T01:59:24.447Z,948.44
2022-09-28T02:00:24.431Z,948.48
2022-09-28T02:01:24.413Z,948.48
2022-09-28T02:02:24.508Z,948.44
2022-09-28T02:03:24.375Z,948.42
2022-09-28T02:04:24.357Z,948.42
2022-09-28T02:05:24.339Z,948.41
2022-09-28T02:06:24.319Z,948.40
2022-09-28T02:07:24.325Z,948.42
2022-09-28T02:08:24.282Z,948.44
2022-09-28T02:09:24.267Z,948.36
2022-09-28T02:10:24.241Z,948.33
2022-09-28T02:11:24.223Z,948.34
2022-09-28T02:12:24.235Z,948.33
2022-09-28T02:13:24.185Z,948.29
2022-09-28T02:14:24.163Z,948.31
2022-09-28T02:15:24.142Z,948.25
2022-09-28T02:16:24.188Z,948.32
2022-09-28T02:17:24.139Z,948.28
2022-09-28T02:18:24.090Z,948.30
2022-09-28T02:19:24.069Z,948.26
2022-09-28T02:20:24.051Z,948.22
2022-09-28T02:21:24.033Z,948.17
2022-09-28T02:22:24.042Z,948.27
2022-09-28T02:23:23.995Z,948.23
2022-09-28T02:24:23.977Z,948.21
2022-09-28T02:25:23.959Z,948.20
2022-09-28T02:26:23.936Z,948.17
2022-09-28T02:27:23.949Z,948.14
2022-09-28T02:28:23.897Z,948.20
2022-09-28T02:29:23.883Z,948.17
2022-09-28T02:30:23.862Z,948.16
2022-09-28T02:31:23.904Z,948.15
2022-09-28T02:32:23.856Z,948.13
2022-09-28T02:33:23.805Z,948.13
2022-09-28T02:34:23.781Z,948.15
2022-09-28T02:35:23.766Z,948.07
2022-09-28T02:36:23.761Z,948.10
2022-09-28T02:37:23.756Z,948.09
2022-09-28T02:38:23.713Z,948.09
2022-09-28T02:39:23.693Z,948.10
2022-09-28T02:40:23.733Z,948.03
2022-09-28T02:41:23.658Z,948.05
2022-09-28T02:42:23.664Z,948.10
2022-09-28T02:43:23.614Z,948.08
2022-09-28T02:44:23.597Z,948.09
2022-09-28T02:45:23.581Z,948.08
2022-09-28T02:46:23.560Z,948.11
2022-09-28T02:47:23.568Z,948.11
2022-09-28T02:48:41.225Z,948.09
2022-09-28T02:49:25.670Z,948.13
2022-09-28T02:50:23.481Z,948.06
2022-09-28T02:51:23.465Z,948.09
2022-09-28T02:52:23.475Z,948.07
2022-09-28T02:53:23.429Z,948.11
2022-09-28T02:54:23.412Z,948.08
2022-09-28T02:55:23.393Z,948.09
2022-09-28T02:56:23.373Z,948.18
2022-09-28T02:57:23.387Z,948.09
2022-09-28T02:58:23.337Z,948.06
2022-09-28T02:59:23.316Z,948.08
2022-09-28T03:00:23.295Z,948.10
2022-09-28T03:01:23.340Z,948.05
2022-09-28T03:02:23.351Z,948.03
2022-09-28T03:03:23.242Z,948.07
2022-09-28T03:04:23.224Z,948.11
2022-09-28T03:05:23.198Z,948.05
2022-09-28T03:06:23.182Z,948.11
2022-09-28T03:07:23.191Z,948.13
2022-09-28T03:08:23.156Z,948.13
2022-09-28T03:09:23.126Z,948.12
2022-09-28T03:10:23.107Z,948.16
2022-09-28T03:11:23.087Z,948.13
2022-09-28T03:12:23.099Z,948.14
2022-09-28T03:13:23.049Z,948.12
2022-09-28T03:14:23.031Z,948.13
2022-09-28T03:15:23.014Z,948.15
2022-09-28T03:16:23.057Z,948.15
2022-09-28T03:17:22.997Z,948.11
2022-09-28T03:18:22.957Z,948.09
2022-09-28T03:19:22.943Z,948.13
2022-09-28T03:20:22.918Z,948.12
2022-09-28T03:21:22.898Z,948.11
2022-09-28T03:22:22.903Z,948.15
2022-09-28T03:23:25.254Z,948.09
2022-09-28T03:24:23.841Z,948.13
2022-09-28T03:25:22.825Z,948.06
2022-09-28T03:26:22.808Z,948.10
2022-09-28T03:27:22.810Z,948.03
2022-09-28T03:28:22.778Z,948.03
2022-09-28T03:29:22.741Z,948.04
2022-09-28T03:30:22.730Z,948.07
2022-09-28T03:31:22.798Z,948.06
2022-09-28T03:32:22.716Z,948.01
2022-09-28T03:33:22.672Z,947.98
2022-09-28T03:34:22.651Z,948.02
2022-09-28T03:35:22.632Z,947.98
2022-09-28T03:36:22.616Z,948.01
2022-09-28T03:37:22.622Z,948.01
2022-09-28T03:38:22.578Z,948.03
2022-09-28T03:39:22.561Z,948.00
2022-09-28T03:40:22.600Z,947.94
2022-09-28T03:41:22.525Z,948.00
2022-09-28T03:42:22.532Z,947.99
2022-09-28T03:43:22.494Z,947.96
2022-09-28T03:44:22.476Z,947.96
2022-09-28T03:45:22.480Z,947.96
2022-09-28T03:46:22.437Z,947.94
2022-09-28T03:47:22.451Z,947.94
2022-09-28T03:48:25.807Z,947.91
2022-09-28T03:49:24.382Z,947.89
2022-09-28T03:50:22.357Z,947.87
2022-09-28T03:51:22.349Z,947.88
2022-09-28T03:52:22.354Z,947.94
2022-09-28T03:53:22.311Z,947.89
2022-09-28T03:54:22.297Z,947.97
2022-09-28T03:55:22.276Z,947.95
2022-09-28T03:56:22.257Z,947.90
2022-09-28T03:57:22.266Z,947.92
2022-09-28T03:58:22.228Z,947.90
2022-09-28T03:59:22.201Z,947.87
2022-09-28T04:00:22.188Z,947.87
2022-09-28T04:01:22.252Z,947.92
2022-09-28T04:02:22.227Z,947.86
2022-09-28T04:03:22.134Z,947.88
2022-09-28T04:04:22.112Z,947.85
2022-09-28T04:05:22.094Z,947.83
2022-09-28T04:06:22.087Z,947.80
2022-09-28T04:07:22.090Z,947.82
2022-09-28T04:08:22.044Z,947.86
2022-09-28T04:09:22.028Z,947.83
2022-09-28T04:10:22.005Z,947.83
2022-09-28T04:11:21.986Z,947.84
2022-09-28T04:12:22.000Z,947.88
2022-09-28T04:13:21.954Z,947.85
2022-09-28T04:14:21.930Z,947.90
2022-09-28T04:15:21.913Z,947.90
2022-09-28T04:16:21.941Z,947.82
2022-09-28T04:17:21.911Z,947.84
2022-09-28T04:18:21.857Z,947.84
2022-09-28T04:19:21.844Z,947.89
2022-09-28T04:20:21.826Z,947.81
2022-09-28T04:21:21.813Z,947.82
2022-09-28T04:22:21.822Z,947.81
2022-09-28T04:23:21.774Z,947.80
2022-09-28T04:24:21.756Z,947.84
2022-09-28T04:25:21.739Z,947.87
2022-09-28T04:26:21.722Z,947.89
2022-09-28T04:27:21.734Z,947.88
2022-09-28T04:28:21.682Z,947.88
2022-09-28T04:29:21.798Z,947.85
2022-09-28T04:30:21.650Z,947.89
2022-09-28T04:31:21.665Z,947.88
2022-09-28T04:32:21.644Z,947.86
2022-09-28T04:33:21.598Z,947.86
2022-09-28T04:34:21.580Z,947.85
2022-09-28T04:35:21.563Z,947.82
2022-09-28T04:36:21.544Z,947.87
2022-09-28T04:37:21.555Z,947.87
2022-09-28T04:38:41.475Z,947.90
2022-09-28T04:39:23.491Z,947.92
2022-09-28T04:40:21.529Z,947.86
2022-09-28T04:41:21.458Z,947.87
2022-09-28T04:42:21.462Z,947.83
2022-09-28T04:43:21.443Z,947.81
2022-09-28T04:44:21.400Z,947.91
2022-09-28T04:45:21.377Z,947.89
2022-09-28T04:46:21.370Z,947.92
2022-09-28T04:47:21.378Z,947.89
2022-09-28T04:48:21.326Z,947.82
2022-09-28T04:49:21.305Z,947.89
2022-09-28T04:50:21.286Z,947.91
2022-09-28T04:51:21.269Z,947.85
2022-09-28T04:52:21.250Z,947.89
2022-09-28T04:53:21.254Z,947.95
2022-09-28T04:54:21.211Z,947.93
2022-09-28T04:55:21.192Z,947.91
2022-09-28T04:56:21.177Z,947.89
2022-09-28T04:57:21.159Z,947.88
2022-09-28T04:58:21.169Z,947.87
2022-09-28T04:59:21.126Z,947.92
2022-09-28T05:00:21.102Z,947.91
2022-09-28T05:01:21.190Z,947.88
2022-09-28T05:02:21.129Z,947.91
2022-09-28T05:03:21.073Z,947.96
2022-09-28T05:04:25.070Z,947.95
2022-09-28T05:05:23.012Z,947.93
2022-09-28T05:06:20.994Z,947.93
2022-09-28T05:07:20.976Z,947.94
2022-09-28T05:08:20.985Z,947.98
2022-09-28T05:09:20.939Z,948.00
2022-09-28T05:10:20.921Z,947.96
2022-09-28T05:11:20.901Z,947.93
2022-09-28T05:12:20.885Z,947.92
2022-09-28T05:13:20.892Z,947.90
2022-09-28T05:14:20.851Z,947.96
2022-09-28T05:15:20.832Z,947.96
2022-09-28T05:16:20.852Z,947.97
2022-09-28T05:17:20.796Z,947.95
2022-09-28T05:18:20.809Z,947.99
2022-09-28T05:19:20.760Z,948.03
2022-09-28T05:20:20.742Z,948.00
2022-09-28T05:21:20.720Z,948.03
2022-09-28T05:22:20.710Z,948.04
2022-09-28T05:23:20.726Z,948.03
2022-09-28T05:24:20.675Z,948.05
2022-09-28T05:25:20.655Z,948.03
2022-09-28T05:26:20.637Z,948.12
2022-09-28T05:27:20.618Z,948.11
2022-09-28T05:28:20.625Z,948.13
2022-09-28T05:29:20.583Z,948.12
2022-09-28T05:30:20.563Z,948.13
2022-09-28T05:31:20.629Z,948.08
2022-09-28T05:32:20.520Z,948.16
2022-09-28T05:33:20.532Z,948.11
2022-09-28T05:34:20.489Z,948.10
2022-09-28T05:35:20.475Z,948.16
2022-09-28T05:36:20.449Z,948.14
2022-09-28T05:37:20.433Z,948.16
2022-09-28T05:38:20.445Z,948.16
2022-09-28T05:39:20.398Z,948.15
2022-09-28T05:40:20.443Z,948.22
2022-09-28T05:41:20.358Z,948.27
2022-09-28T05:42:20.340Z,948.27
2022-09-28T05:43:20.349Z,948.28
2022-09-28T05:44:20.307Z,948.28
2022-09-28T05:45:20.284Z,948.25
2022-09-28T05:46:20.369Z,948.26
2022-09-28T05:47:20.249Z,948.25
2022-09-28T05:48:20.259Z,948.26
2022-09-28T05:49:20.215Z,948.28
2022-09-28T05:50:20.195Z,948.28
2022-09-28T05:51:20.176Z,948.27
2022-09-28T05:52:20.159Z,948.33
2022-09-28T05:53:20.174Z,948.30
2022-09-28T05:54:20.402Z,948.26
2022-09-28T05:55:20.103Z,948.20
2022-09-28T05:56:20.081Z,948.22
2022-09-28T05:57:20.063Z,948.24
2022-09-28T05:58:20.071Z,948.27
2022-09-28T05:59:20.032Z,948.31
2022-09-28T06:00:20.008Z,948.33
2022-09-28T06:01:20.026Z,948.27
2022-09-28T06:02:20.018Z,948.29
2022-09-28T06:03:19.979Z,948.25
2022-09-28T06:04:19.930Z,948.31
2022-09-28T06:05:19.911Z,948.27
2022-09-28T06:06:19.894Z,948.30
2022-09-28T06:07:19.875Z,948.33
2022-09-28T06:08:19.938Z,948.32
2022-09-28T06:09:23.818Z,948.35
2022-09-28T06:10:21.821Z,948.33
2022-09-28T06:11:19.813Z,948.32
2022-09-28T06:12:19.785Z,948.27
2022-09-28T06:13:19.791Z,948.29
2022-09-28T06:14:19.745Z,948.32
2022-09-28T06:15:19.730Z,948.25
2022-09-28T06:16:19.749Z,948.23
2022-09-28T06:17:19.692Z,948.27
2022-09-28T06:18:19.704Z,948.26
2022-09-28T06:19:19.657Z,948.22
2022-09-28T06:20:19.637Z,948.30
2022-09-28T06:21:19.616Z,948.30
2022-09-28T06:22:19.600Z,948.29
2022-09-28T06:23:19.611Z,948.32
2022-09-28T06:24:19.562Z,948.31
2022-09-28T06:25:19.542Z,948.30
2022-09-28T06:26:19.528Z,948.27
2022-09-28T06:27:19.510Z,948.34
2022-09-28T06:28:19.522Z,948.32
2022-09-28T06:29:19.874Z,948.33
2022-09-28T06:30:20.453Z,948.34
2022-09-28T06:31:19.487Z,948.30
2022-09-28T06:32:19.416Z,948.30
2022-09-28T06:33:19.426Z,948.29
2022-09-28T06:34:19.477Z,948.32
2022-09-28T06:35:19.361Z,948.24
2022-09-28T06:36:19.351Z,948.33
2022-09-28T06:37:19.335Z,948.27
2022-09-28T06:38:19.341Z,948.30
2022-09-28T06:39:19.295Z,948.22
2022-09-28T06:40:19.295Z,948.23
2022-09-28T06:41:19.256Z,948.25
2022-09-28T06:42:19.238Z,948.30
2022-09-28T06:43:19.251Z,948.26
2022-09-28T06:44:19.310Z,948.27
2022-09-28T06:45:19.191Z,948.27
2022-09-28T06:46:19.227Z,948.25
2022-09-28T06:47:19.149Z,948.26
2022-09-28T06:48:19.156Z,948.36
2022-09-28T06:49:19.659Z,948.35
2022-09-28T06:50:20.097Z,948.39
2022-09-28T06:51:19.085Z,948.36
2022-09-28T06:52:19.060Z,948.38
2022-09-28T06:53:19.068Z,948.35
2022-09-28T06:54:19.197Z,948.40
2022-09-28T06:55:19.007Z,948.35
2022-09-28T06:56:18.991Z,948.34
2022-09-28T06:57:18.971Z,948.40
2022-09-28T06:58:18.981Z,948.46
2022-09-28T06:59:18.935Z,948.51
2022-09-28T07:00:18.917Z,948.45
2022-09-28T07:01:18.968Z,948.48
2022-09-28T07:02:18.946Z,948.46
2022-09-28T07:03:18.896Z,948.50
2022-09-28T07:04:18.985Z,948.50
2022-09-28T07:05:18.833Z,948.49
2022-09-28T07:06:18.813Z,948.56
2022-09-28T07:07:18.793Z,948.52
2022-09-28T07:08:18.804Z,948.53
2022-09-28T07:09:31.518Z,948.54
2022-09-28T07:10:20.772Z,948.56
2022-09-28T07:11:18.727Z,948.62
2022-09-28T07:12:18.705Z,948.61
2022-09-28T07:13:44.504Z,948.56
2022-09-28T07:14:39.073Z,948.52
2022-09-28T07:15:20.666Z,948.60
2022-09-28T07:16:22.721Z,948.60
2022-09-28T07:17:19.648Z,948.36
2022-09-28T07:18:18.764Z,948.47
2022-09-28T07:19:18.602Z,948.53
2022-09-28T07:20:19.551Z,948.54
2022-09-28T07:21:28.645Z,948.53
2022-09-28T07:22:28.868Z,948.47
2022-09-28T07:23:20.530Z,948.40
2022-09-28T07:24:19.952Z,948.36
2022-09-28T07:25:18.473Z,948.46
2022-09-28T07:26:22.593Z,948.54
2022-09-28T07:27:20.432Z,948.51
2022-09-28T07:28:18.434Z,948.55
2022-09-28T07:29:18.387Z,948.62
2022-09-28T07:30:18.362Z,948.63
2022-09-28T07:31:18.425Z,948.63
2022-09-28T07:32:18.364Z,948.68
2022-09-28T07:33:18.326Z,948.66
2022-09-28T07:34:18.421Z,948.64
2022-09-28T07:35:18.253Z,948.73
2022-09-28T07:36:18.230Z,948.75
2022-09-28T07:37:18.210Z,948.81
2022-09-28T07:38:18.217Z,948.76
2022-09-28T07:39:18.164Z,948.74
2022-09-28T07:40:18.223Z,948.82
2022-09-28T07:41:18.118Z,948.85
2022-09-28T07:42:18.096Z,948.81
2022-09-28T07:43:18.101Z,948.80
2022-09-28T07:44:18.105Z,948.85
2022-09-28T07:45:18.027Z,948.84
2022-09-28T07:46:18.069Z,948.81
2022-09-28T07:47:17.989Z,948.78
2022-09-28T07:48:17.991Z,948.87
2022-09-28T07:49:17.987Z,948.86
2022-09-28T07:50:17.935Z,948.85
2022-09-28T07:51:17.905Z,948.91
2022-09-28T07:52:17.878Z,948.92
2022-09-28T07:53:17.859Z,948.91
2022-09-28T07:54:17.867Z,948.92
2022-09-28T07:55:17.814Z,948.89
2022-09-28T07:56:17.796Z,948.95
2022-09-28T07:57:17.776Z,949.00
2022-09-28T07:58:17.792Z,948.98
2022-09-28T07:59:17.935Z,949.02
2022-09-28T08:00:17.719Z,948.93
2022-09-28T08:01:17.753Z,948.94
2022-09-28T08:02:17.755Z,948.86
2022-09-28T08:03:17.649Z,948.73
2022-09-28T08:04:17.654Z,948.86
2022-09-28T08:05:17.623Z,948.77
2022-09-28T08:06:17.586Z,948.73
2022-09-28T08:07:21.587Z,948.77
2022-09-28T08:08:19.567Z,948.86
2022-09-28T08:09:17.623Z,948.85
2022-09-28T08:10:17.502Z,948.94
2022-09-28T08:11:17.476Z,948.96
2022-09-28T08:12:17.452Z,948.94
2022-09-28T08:13:17.435Z,949.04
2022-09-28T08:14:17.553Z,949.01
2022-09-28T08:15:17.386Z,948.96
2022-09-28T08:16:17.494Z,948.98
2022-09-28T08:17:17.335Z,949.04
2022-09-28T08:18:17.315Z,949.03
2022-09-28T08:19:17.488Z,949.03
2022-09-28T08:20:17.265Z,948.95
2022-09-28T08:21:17.241Z,948.96
2022-09-28T08:22:17.220Z,949.07
2022-09-28T08:23:17.196Z,948.98
2022-09-28T08:24:17.286Z,948.86
2022-09-28T08:25:17.155Z,949.06
2022-09-28T08:26:17.132Z,948.84
2022-09-28T08:27:17.111Z,948.92
2022-09-28T08:28:17.103Z,948.96
2022-09-28T08:29:17.095Z,949.04
2022-09-28T08:30:17.045Z,949.01
2022-09-28T08:31:17.109Z,949.05
2022-09-28T08:32:17.003Z,949.10
2022-09-28T08:33:16.980Z,949.13
2022-09-28T08:34:17.002Z,949.09
2022-09-28T08:35:16.937Z,949.14
2022-09-28T08:36:16.917Z,949.18
2022-09-28T08:37:16.894Z,949.22
2022-09-28T08:38:16.869Z,949.18
2022-09-28T08:39:16.877Z,949.08
2022-09-28T08:40:16.896Z,949.13
2022-09-28T08:41:16.809Z,949.23
2022-09-28T08:42:16.787Z,949.22
2022-09-28T08:43:16.766Z,949.28
2022-09-28T08:44:16.827Z,949.23
2022-09-28T08:45:16.718Z,949.17
2022-09-28T08:46:16.744Z,949.23
2022-09-28T08:47:16.676Z,949.34
2022-09-28T08:48:16.655Z,949.28
2022-09-28T08:49:32.217Z,949.31
2022-09-28T08:50:18.615Z,949.36
2022-09-28T08:51:16.590Z,949.40
2022-09-28T08:52:16.568Z,949.39
2022-09-28T08:53:16.562Z,949.42
2022-09-28T08:54:16.620Z,949.35
2022-09-28T08:55:16.507Z,949.30
2022-09-28T08:56:16.488Z,949.39
2022-09-28T08:57:16.465Z,949.35
2022-09-28T08:58:16.439Z,949.39
2022-09-28T08:59:16.444Z,949.41
2022-09-28T09:00:16.396Z,949.43
2022-09-28T09:01:16.481Z,949.32
2022-09-28T09:02:16.433Z,949.28
2022-09-28T09:03:16.328Z,949.32
2022-09-28T09:04:16.336Z,949.31
2022-09-28T09:05:16.284Z,949.28
2022-09-28T09:06:18.512Z,949.29
2022-09-28T09:07:17.248Z,949.29
2022-09-28T09:08:16.227Z,949.30
2022-09-28T09:09:16.274Z,949.28
2022-09-28T09:10:16.189Z,949.22
2022-09-28T09:11:16.173Z,949.27
2022-09-28T09:12:16.154Z,949.26
2022-09-28T09:13:16.137Z,949.25
2022-09-28T09:14:16.204Z,949.31
2022-09-28T09:15:16.094Z,949.19
2022-09-28T09:16:16.114Z,949.32
2022-09-28T09:17:16.054Z,949.28
2022-09-28T09:18:19.761Z,949.31
2022-09-28T09:19:17.047Z,949.24
2022-09-28T09:20:16.001Z,949.41
2022-09-28T09:21:15.982Z,949.25
2022-09-28T09:22:15.964Z,949.35
2022-09-28T09:23:15.946Z,949.31
2022-09-28T09:24:15.961Z,949.36
2022-09-28T09:25:15.910Z,949.42
2022-09-28T09:26:19.789Z,949.43
2022-09-28T09:27:17.874Z,949.45
2022-09-28T09:28:15.855Z,949.50
2022-09-28T09:29:15.861Z,949.48
2022-09-28T09:30:18.416Z,949.46
2022-09-28T09:31:20.692Z,949.52
2022-09-28T09:32:17.786Z,949.46
2022-09-28T09:33:15.765Z,949.45
2022-09-28T09:34:15.819Z,949.49
2022-09-28T09:35:15.725Z,949.49
2022-09-28T09:36:15.706Z,949.54
2022-09-28T09:37:15.690Z,949.52
2022-09-28T09:38:15.671Z,949.54
2022-09-28T09:39:15.676Z,949.59
2022-09-28T09:40:15.722Z,949.59
2022-09-28T09:41:15.617Z,949.63
2022-09-28T09:42:15.593Z,949.62
2022-09-28T09:43:15.577Z,949.59
2022-09-28T09:44:15.616Z,949.61
2022-09-28T09:45:15.550Z,949.73
2022-09-28T09:46:15.588Z,949.63
2022-09-28T09:47:15.501Z,949.74
2022-09-28T09:48:15.480Z,949.56
2022-09-28T09:49:15.491Z,949.58
2022-09-28T09:50:15.445Z,949.60
2022-09-28T09:51:15.425Z,949.61
2022-09-28T09:52:15.422Z,949.60
2022-09-28T09:53:15.396Z,949.63
2022-09-28T09:54:15.403Z,949.59
2022-09-28T09:55:15.351Z,949.66
2022-09-28T09:56:15.321Z,949.62
2022-09-28T09:57:15.306Z,949.61
2022-09-28T09:58:15.290Z,949.58
2022-09-28T09:59:15.451Z,949.66
2022-09-28T10:00:15.258Z,949.57
2022-09-28T10:01:15.294Z,949.61
2022-09-28T10:02:15.256Z,949.60
2022-09-28T10:03:15.184Z,949.68
2022-09-28T10:04:15.193Z,949.65
2022-09-28T10:05:15.158Z,949.62
2022-09-28T10:06:15.129Z,949.69
2022-09-28T10:07:15.111Z,949.63
2022-09-28T10:08:15.088Z,949.65
2022-09-28T10:09:15.181Z,949.71
2022-09-28T10:10:15.049Z,949.74
2022-09-28T10:11:15.030Z,949.73
2022-09-28T10:12:15.009Z,949.66
2022-09-28T10:13:14.993Z,949.66
2022-09-28T10:14:15.004Z,949.69
2022-09-28T10:15:14.961Z,949.77
2022-09-28T10:16:15.009Z,949.77
2022-09-28T10:17:14.911Z,949.72
2022-09-28T10:18:14.889Z,949.82
2022-09-28T10:19:14.971Z,949.81
2022-09-28T10:20:14.851Z,949.80
2022-09-28T10:21:14.833Z,949.85
2022-09-28T10:22:14.807Z,949.81
2022-09-28T10:23:14.788Z,949.83
2022-09-28T10:24:14.796Z,949.81
2022-09-28T10:25:14.748Z,949.87
2022-09-28T10:26:14.727Z,949.81
2022-09-28T10:27:14.708Z,949.85
2022-09-28T10:28:14.686Z,949.86
2022-09-28T10:29:14.788Z,949.88
2022-09-28T10:30:14.650Z,949.99
2022-09-28T10:31:14.629Z,949.95
2022-09-28T10:32:14.605Z,949.93
2022-09-28T10:33:14.583Z,950.00
2022-09-28T10:34:14.708Z,949.97
2022-09-28T10:35:14.558Z,950.02
2022-09-28T10:36:14.518Z,950.07
2022-09-28T10:37:14.499Z,950.08
2022-09-28T10:38:14.475Z,950.11
2022-09-28T10:39:14.956Z,950.14
2022-09-28T10:40:14.430Z,950.16
2022-09-28T10:41:14.408Z,950.07
2022-09-28T10:42:14.386Z,950.09
2022-09-28T10:43:14.361Z,950.05
2022-09-28T10:44:14.605Z,950.06
2022-09-28T10:45:14.317Z,950.09
2022-09-28T10:46:14.452Z,950.08
2022-09-28T10:47:14.272Z,950.09
2022-09-28T10:48:14.247Z,950.08
2022-09-28T10:49:14.253Z,950.10
2022-09-28T10:50:14.201Z,950.10
2022-09-28T10:51:14.180Z,950.11
2022-09-28T10:52:14.155Z,950.14
2022-09-28T10:53:14.133Z,950.16
2022-09-28T10:54:14.189Z,950.14
2022-09-28T10:55:14.089Z,950.12
2022-09-28T10:56:14.065Z,950.12
2022-09-28T10:57:14.043Z,950.16
2022-09-28T10:58:14.022Z,950.11
2022-09-28T10:59:14.026Z,950.14
2022-09-28T11:00:13.991Z,950.15
2022-09-28T11:01:13.999Z,950.19
2022-09-28T11:02:15.007Z,950.15
2022-09-28T11:03:13.904Z,950.20
2022-09-28T11:04:13.993Z,950.15
2022-09-28T11:05:13.866Z,950.15
2022-09-28T11:06:13.846Z,950.19
2022-09-28T11:07:15.392Z,950.21
2022-09-28T11:08:13.792Z,950.14
2022-09-28T11:09:13.797Z,950.22
2022-09-28T11:10:13.748Z,950.11
2022-09-28T11:11:13.749Z,950.18
2022-09-28T11:12:13.702Z,950.14
2022-09-28T11:13:13.683Z,950.11
2022-09-28T11:14:13.687Z,950.09
2022-09-28T11:15:13.641Z,950.11
2022-09-28T11:16:13.692Z,950.09
2022-09-28T11:17:13.597Z,950.08
2022-09-28T11:18:13.574Z,950.08
2022-09-28T11:19:13.573Z,950.10
2022-09-28T11:20:13.525Z,950.07
2022-09-28T11:21:13.501Z,950.09
2022-09-28T11:22:14.064Z,950.11
2022-09-28T11:23:14.459Z,950.12
2022-09-28T11:24:18.056Z,950.14
2022-09-28T11:25:15.415Z,950.09
2022-09-28T11:26:18.224Z,950.13
2022-09-28T11:27:15.370Z,950.11
2022-09-28T11:28:13.345Z,950.06
2022-09-28T11:29:13.350Z,950.14
2022-09-28T11:30:13.297Z,950.15
2022-09-28T11:31:13.349Z,950.12
2022-09-28T11:32:15.850Z,950.17
2022-09-28T11:33:14.234Z,950.10
2022-09-28T11:34:13.242Z,950.10
2022-09-28T11:35:13.216Z,950.15
2022-09-28T11:36:13.167Z,950.09
2022-09-28T11:37:13.147Z,950.13
2022-09-28T11:38:13.121Z,950.13
2022-09-28T11:39:13.127Z,950.12
2022-09-28T11:40:13.081Z,950.10
2022-09-28T11:41:13.062Z,950.13
2022-09-28T11:42:16.267Z,950.13
2022-09-28T11:43:15.964Z,950.13
2022-09-28T11:44:13.016Z,950.04
2022-09-28T11:45:12.963Z,950.16
2022-09-28T11:46:13.003Z,950.16
2022-09-28T11:47:12.926Z,950.19
2022-09-28T11:48:12.899Z,950.11
2022-09-28T11:49:12.905Z,950.13
2022-09-28T11:50:12.852Z,950.16
2022-09-28T11:51:12.831Z,950.12
2022-09-28T11:52:12.806Z,950.17
2022-09-28T11:53:12.785Z,950.16
2022-09-28T11:54:12.793Z,950.14
2022-09-28T11:55:12.739Z,950.13
2022-09-28T11:56:12.717Z,950.11
2022-09-28T11:57:12.694Z,950.13
2022-09-28T11:58:12.670Z,950.14
2022-09-28T11:59:12.684Z,950.14
2022-09-28T12:00:12.621Z,950.14
2022-09-28T12:01:15.445Z,950.12
2022-09-28T12:02:14.644Z,950.15
2022-09-28T12:03:12.628Z,950.20
2022-09-28T12:04:12.541Z,950.19
2022-09-28T12:05:14.914Z,950.24
2022-09-28T12:06:13.500Z,950.21
2022-09-28T12:07:12.479Z,950.18
2022-09-28T12:08:12.459Z,950.28
2022-09-28T12:09:12.436Z,950.26
2022-09-28T12:10:12.441Z,950.18
2022-09-28T12:11:12.397Z,950.29
2022-09-28T12:12:12.371Z,950.24
2022-09-28T12:13:12.358Z,950.27
2022-09-28T12:14:12.329Z,950.30
2022-09-28T12:15:12.334Z,950.32
2022-09-28T12:16:38.486Z,950.31
2022-09-28T12:17:17.904Z,950.29
2022-09-28T12:18:14.293Z,950.30
2022-09-28T12:19:12.223Z,950.33
2022-09-28T12:20:12.227Z,950.32
2022-09-28T12:21:12.183Z,950.44
2022-09-28T12:22:12.189Z,950.42
2022-09-28T12:23:12.137Z,950.38
2022-09-28T12:24:12.115Z,950.37
2022-09-28T12:25:12.124Z,950.43
2022-09-28T12:26:12.072Z,950.40
2022-09-28T12:27:12.053Z,950.42
2022-09-28T12:28:12.030Z,950.39